Ossian — WDF2623 — position and weather

sailwx.info

Track history (hours):
 
Tides and Currents Weather Stations Pressure Air Temp Water Temp Dewpoint Dewpoint Depression Visibility Wind Speed Wind Dir Waves Ship Positions

Ossian

Owner: Hartzell, Scott R, Florence, OR. More information available from US FCC via Universal Licensing System and Coast Guard Vessel Documentation Center.

Last reported at 2015-Mar-29 02:33 UTC. Time now 2015-Mar-29 10:40 UTC.
Position N 35°07' W 120°56'.

Length 26 m.

Type: Fishing. MMSI: 366773410.

Date/timePositionNaut miles runAvg speedWind from/ knotsBaromVisibWave heightAir tempDewpointWater temp
2015-Mar-29 02:33N 35°07' W 120°56'  
2015-Mar-20 21:07N 36°31' W 122°23'18 9.1
2015-Mar-20 19:07N 36°45' W 122°38'5 9.5
2015-Mar-20 18:33N 36°50' W 122°41'11 9.0
2015-Mar-20 17:18N 36°60' W 122°49'6 8.6
2015-Mar-20 16:33N 37°05' W 122°53'9 8.7
2015-Mar-20 15:33N 37°13' W 122°58'9 9.0
2015-Mar-20 14:33N 37°20' W 123°04'9 9.2
2015-Mar-20 13:33N 37°28' W 123°10'9 9.1
2015-Mar-20 12:33N 37°36' W 123°16'9 9.0
2015-Mar-20 11:33N 37°44' W 123°21'9 9.2
2015-Mar-20 10:33N 37°52' W 123°27'9 8.9
2015-Mar-20 09:33N 38°00' W 123°31'9 9.4
2015-Mar-20 08:33N 38°10' W 123°32'9 9.3
2015-Mar-20 07:33N 38°19' W 123°34'9 9.2
2015-Mar-20 06:33N 38°27' W 123°40'9 8.9
2015-Mar-20 05:32N 38°35' W 123°45'9 9.0
2015-Mar-20 04:33N 38°43' W 123°50'  
Track history (hours):
 
Tides and Currents Weather Stations Pressure Air Temp Water Temp Dewpoint Dewpoint Depression Visibility Wind Speed Wind Dir Waves Ship Positions

Ossian

Owner: Hartzell, Scott R, Florence, OR. More information available from US FCC via Universal Licensing System and Coast Guard Vessel Documentation Center.

Last reported at 2015-Mar-29 02:33 UTC. Time now 2015-Mar-29 10:40 UTC.
Position N 35°07' W 120°56'.

Length 26 m.

Type: Fishing. MMSI: 366773410.

Date/timePositionNaut miles runAvg speedWind from/ knotsBaromVisibWave heightAir tempDewpointWater temp
2015-Mar-29 02:33N 35°07' W 120°56'  
2015-Mar-20 21:07N 36°31' W 122°23'18 9.1
2015-Mar-20 19:07N 36°45' W 122°38'5 9.5
2015-Mar-20 18:33N 36°50' W 122°41'11 9.0
2015-Mar-20 17:18N 36°60' W 122°49'6 8.6
2015-Mar-20 16:33N 37°05' W 122°53'9 8.7
2015-Mar-20 15:33N 37°13' W 122°58'9 9.0
2015-Mar-20 14:33N 37°20' W 123°04'9 9.2
2015-Mar-20 13:33N 37°28' W 123°10'9 9.1
2015-Mar-20 12:33N 37°36' W 123°16'9 9.0
2015-Mar-20 11:33N 37°44' W 123°21'9 9.2
2015-Mar-20 10:33N 37°52' W 123°27'9 8.9
2015-Mar-20 09:33N 38°00' W 123°31'9 9.4
2015-Mar-20 08:33N 38°10' W 123°32'9 9.3
2015-Mar-20 07:33N 38°19' W 123°34'9 9.2
2015-Mar-20 06:33N 38°27' W 123°40'9 8.9
2015-Mar-20 05:32N 38°35' W 123°45'9 9.0
2015-Mar-20 04:33N 38°43' W 123°50'  

Dump ship's entire track history